Mehoopany, Pennsylvania
Current Conditions -  °F | °C
As of 2:54 AM on Saturday 25 Oct 2014 (Local Time) from KAVP Reporting Station
Clear Clear  
Wind Chill: 42°   Ceiling: Unl
Heat Index: 42°   Visibility: 10mi
Dew Point: 31°   Wind: 0mph
Humidity: 65%   Direction: NA
Pressure: 29.91"   Gusts: NA
Location:  41.56°N, 76.06°W
Report Text: KAVP 250654Z AUTO 00000KT 10SM CLR 06/M01 A2991 RMK AO2 SLP128 T00561006
Loading
Personal Weather Stations






























Interactive Weather Map
Tropical Storm Tracking
New forecast layout! Learn more

10-Day Weather Forecast

Advertisements
Track Severe Weather on mobile